createdAt,value
2018-05-14T00:00:50.037Z,15.96
2018-05-14T00:01:49.936Z,16.02
2018-05-14T00:02:49.950Z,15.97
2018-05-14T00:03:50.047Z,16.01
2018-05-14T00:04:49.985Z,15.94
2018-05-14T00:05:50.000Z,15.94
2018-05-14T00:06:50.021Z,15.86
2018-05-14T00:07:50.039Z,15.82
2018-05-14T00:08:50.055Z,15.89
2018-05-14T00:09:50.070Z,15.93
2018-05-14T00:10:50.085Z,15.93
2018-05-14T00:11:50.101Z,16.00
2018-05-14T00:12:50.119Z,15.97
2018-05-14T00:13:50.138Z,15.94
2018-05-14T00:14:50.151Z,15.92
2018-05-14T00:15:50.167Z,15.94
2018-05-14T00:16:50.190Z,15.96
2018-05-14T00:17:50.202Z,16.01
2018-05-14T00:18:50.216Z,15.94
2018-05-14T00:19:50.234Z,16.00
2018-05-14T00:20:50.251Z,15.97
2018-05-14T00:21:50.266Z,16.04
2018-05-14T00:22:50.286Z,15.96
2018-05-14T00:23:50.304Z,15.97
2018-05-14T00:24:50.318Z,15.90
2018-05-14T00:25:50.337Z,15.84
2018-05-14T00:26:50.350Z,15.90
2018-05-14T00:27:50.369Z,15.94
2018-05-14T00:28:50.383Z,15.93
2018-05-14T00:29:50.400Z,16.01
2018-05-14T00:30:50.420Z,16.05
2018-05-14T00:31:50.755Z,16.04
2018-05-14T00:32:50.470Z,15.94
2018-05-14T00:33:50.467Z,15.96
2018-05-14T00:34:50.488Z,15.89
2018-05-14T00:35:50.502Z,15.83
2018-05-14T00:36:50.587Z,15.83
2018-05-14T00:37:50.534Z,15.80
2018-05-14T00:38:50.551Z,15.92
2018-05-14T00:39:50.569Z,16.02
2018-05-14T00:40:50.620Z,15.96
2018-05-14T00:41:50.600Z,16.00
2018-05-14T00:42:50.628Z,15.96
2018-05-14T00:43:50.635Z,16.07
2018-05-14T00:44:50.651Z,16.02
2018-05-14T00:45:50.668Z,15.96
2018-05-14T00:46:50.688Z,15.97
2018-05-14T00:47:50.702Z,15.93
2018-05-14T00:48:50.716Z,15.90
2018-05-14T00:49:50.734Z,15.92
2018-05-14T00:50:50.751Z,15.92
2018-05-14T00:51:50.771Z,15.96
2018-05-14T00:52:50.787Z,15.87
2018-05-14T00:53:50.800Z,15.75
2018-05-14T00:54:50.820Z,15.83
2018-05-14T00:55:50.835Z,15.90
2018-05-14T00:56:50.850Z,15.86
2018-05-14T00:57:50.868Z,15.92
2018-05-14T00:58:50.881Z,15.87
2018-05-14T00:59:50.899Z,15.94
2018-05-14T01:00:50.920Z,15.93
2018-05-14T01:01:50.934Z,15.94
2018-05-14T01:02:50.952Z,16.00
2018-05-14T01:03:50.965Z,15.93
2018-05-14T01:04:50.984Z,16.00
2018-05-14T01:05:51.001Z,15.90
2018-05-14T01:06:51.051Z,15.86
2018-05-14T01:07:51.046Z,15.90
2018-05-14T01:08:51.119Z,15.90
2018-05-14T01:09:51.065Z,16.00
2018-05-14T01:10:51.083Z,15.87
2018-05-14T01:11:51.100Z,15.86
2018-05-14T01:12:51.123Z,15.83
2018-05-14T01:13:51.133Z,16.00
2018-05-14T01:14:51.149Z,15.86
2018-05-14T01:15:51.191Z,15.90
2018-05-14T01:16:51.184Z,15.80
2018-05-14T01:17:51.204Z,15.84
2018-05-14T01:18:51.217Z,15.86
2018-05-14T01:19:51.237Z,15.89
2018-05-14T01:20:51.248Z,15.89
2018-05-14T01:21:51.266Z,15.83
2018-05-14T01:22:51.283Z,15.89
2018-05-14T01:23:51.299Z,15.76
2018-05-14T01:24:51.321Z,15.86
2018-05-14T01:25:51.336Z,15.90
2018-05-14T01:26:51.348Z,15.83
2018-05-14T01:27:51.364Z,15.93
2018-05-14T01:28:51.381Z,16.00
2018-05-14T01:29:51.396Z,16.00
2018-05-14T01:30:51.413Z,16.02
2018-05-14T01:31:51.430Z,15.94
2018-05-14T01:32:51.448Z,15.92
2018-05-14T01:33:51.464Z,15.94
2018-05-14T01:34:51.480Z,16.04
2018-05-14T01:35:51.501Z,16.08
2018-05-14T01:36:51.513Z,15.94
2018-05-14T01:37:51.531Z,16.01
2018-05-14T01:38:51.545Z,15.97
2018-05-14T01:39:51.600Z,15.90
2018-05-14T01:40:51.585Z,15.97
2018-05-14T01:41:51.598Z,15.90
2018-05-14T01:42:51.615Z,16.01
2018-05-14T01:43:51.636Z,16.02
2018-05-14T01:44:51.646Z,16.02
2018-05-14T01:45:51.662Z,15.97
2018-05-14T01:46:51.751Z,16.07
2018-05-14T01:47:51.696Z,16.05
2018-05-14T01:48:51.714Z,16.07
2018-05-14T01:49:51.729Z,16.04
2018-05-14T01:50:51.746Z,16.00
2018-05-14T01:51:51.766Z,15.90
2018-05-14T01:52:51.779Z,15.97
2018-05-14T01:53:51.796Z,15.87
2018-05-14T01:54:51.816Z,16.00
2018-05-14T01:55:51.829Z,16.00
2018-05-14T01:56:51.851Z,16.04
2018-05-14T01:57:51.863Z,16.07
2018-05-14T01:58:51.879Z,16.08
2018-05-14T01:59:51.901Z,16.09
2018-05-14T02:00:51.913Z,16.08
2018-05-14T02:01:51.930Z,16.07
2018-05-14T02:02:51.943Z,16.08
2018-05-14T02:03:51.962Z,16.15
2018-05-14T02:04:51.981Z,16.15
2018-05-14T02:05:51.994Z,16.07
2018-05-14T02:06:52.059Z,16.07
2018-05-14T02:07:52.030Z,16.07
2018-05-14T02:08:52.045Z,16.05
2018-05-14T02:09:52.061Z,16.07
2018-05-14T02:10:52.081Z,16.05
2018-05-14T02:11:52.095Z,16.11
2018-05-14T02:12:52.118Z,16.14
2018-05-14T02:13:52.133Z,16.07
2018-05-14T02:14:52.157Z,16.04
2018-05-14T02:15:52.166Z,16.04
2018-05-14T02:16:52.188Z,16.07
2018-05-14T02:17:52.194Z,16.15
2018-05-14T02:18:52.213Z,16.20
2018-05-14T02:19:52.228Z,16.14
2018-05-14T02:20:52.247Z,16.21
2018-05-14T02:21:52.259Z,16.07
2018-05-14T02:22:52.279Z,16.05
2018-05-14T02:23:52.298Z,16.11
2018-05-14T02:24:52.314Z,16.07
2018-05-14T02:25:52.330Z,16.02
2018-05-14T02:26:52.350Z,15.94
2018-05-14T02:27:52.362Z,15.97
2018-05-14T02:28:52.386Z,15.90
2018-05-14T02:29:52.406Z,16.00
2018-05-14T02:30:52.411Z,16.01
2018-05-14T02:31:52.430Z,16.04
2018-05-14T02:32:52.444Z,16.04
2018-05-14T02:33:52.461Z,16.04
2018-05-14T02:34:52.477Z,16.08
2018-05-14T02:35:52.494Z,15.94
2018-05-14T02:36:52.513Z,15.94
2018-05-14T02:37:52.529Z,15.90
2018-05-14T02:38:52.547Z,15.89
2018-05-14T02:39:52.563Z,15.90
2018-05-14T02:40:52.586Z,15.84
2018-05-14T02:41:52.593Z,15.83
2018-05-14T02:42:52.614Z,15.93
2018-05-14T02:43:52.627Z,15.89
2018-05-14T02:44:52.647Z,15.87
2018-05-14T02:45:52.664Z,15.90
2018-05-14T02:46:52.677Z,16.02
2018-05-14T02:47:52.694Z,15.97
2018-05-14T02:48:52.731Z,15.89
2018-05-14T02:49:52.731Z,15.90
2018-05-14T02:50:52.743Z,15.90
2018-05-14T02:51:52.758Z,15.97
2018-05-14T02:52:52.779Z,15.92
2018-05-14T02:53:52.793Z,15.84
2018-05-14T02:54:52.809Z,15.92
2018-05-14T02:55:52.827Z,15.97
2018-05-14T02:56:52.845Z,15.96
2018-05-14T02:57:52.860Z,15.97
2018-05-14T02:58:52.876Z,16.01
2018-05-14T02:59:52.897Z,16.00
2018-05-14T03:00:52.910Z,16.07
2018-05-14T03:01:52.925Z,16.07
2018-05-14T03:02:52.944Z,16.08
2018-05-14T03:03:52.964Z,16.04
2018-05-14T03:04:52.991Z,16.00
2018-05-14T03:05:52.993Z,16.01
2018-05-14T03:06:53.009Z,16.02
2018-05-14T03:07:53.026Z,15.96
2018-05-14T03:08:53.044Z,15.89
2018-05-14T03:09:53.060Z,15.89
2018-05-14T03:10:53.076Z,15.80
2018-05-14T03:11:53.094Z,15.80
2018-05-14T03:12:53.110Z,15.74
2018-05-14T03:13:53.129Z,15.83
2018-05-14T03:14:53.140Z,15.80
2018-05-14T03:15:53.159Z,15.76
2018-05-14T03:16:53.179Z,15.76
2018-05-14T03:17:53.191Z,15.80
2018-05-14T03:18:53.212Z,15.83
2018-05-14T03:19:53.226Z,15.72
2018-05-14T03:20:53.239Z,15.75
2018-05-14T03:21:53.255Z,15.80
2018-05-14T03:22:53.277Z,15.76
2018-05-14T03:23:53.290Z,15.78
2018-05-14T03:24:53.642Z,15.76
2018-05-14T03:25:53.328Z,15.82
2018-05-14T03:26:53.341Z,15.76
2018-05-14T03:27:53.376Z,15.83
2018-05-14T03:28:53.377Z,15.82
2018-05-14T03:29:53.391Z,15.78
2018-05-14T03:30:53.409Z,15.75
2018-05-14T03:31:53.427Z,15.71
2018-05-14T03:32:53.445Z,15.71
2018-05-14T03:33:53.457Z,15.80
2018-05-14T03:34:53.472Z,15.74
2018-05-14T03:35:53.492Z,15.80
2018-05-14T03:36:53.517Z,15.76
2018-05-14T03:37:53.523Z,15.74
2018-05-14T03:38:53.540Z,15.72
2018-05-14T03:39:53.555Z,15.75
2018-05-14T03:40:53.574Z,15.76
2018-05-14T03:41:53.606Z,15.75
2018-05-14T03:42:53.610Z,15.87
2018-05-14T03:43:53.621Z,15.82
2018-05-14T03:44:53.641Z,15.71
2018-05-14T03:45:53.660Z,15.75
2018-05-14T03:46:53.672Z,15.75
2018-05-14T03:47:53.696Z,15.90
2018-05-14T03:48:53.709Z,15.71
2018-05-14T03:49:53.731Z,15.72
2018-05-14T03:50:53.737Z,15.74
2018-05-14T03:51:53.756Z,15.71
2018-05-14T03:52:53.771Z,15.82
2018-05-14T03:53:53.785Z,15.86
2018-05-14T03:54:53.812Z,15.80
2018-05-14T03:55:53.820Z,15.75
2018-05-14T03:56:53.862Z,15.82
2018-05-14T03:57:53.890Z,15.76
2018-05-14T03:58:53.896Z,15.86
2018-05-14T03:59:53.895Z,15.76
2018-05-14T04:00:53.904Z,15.76
2018-05-14T04:01:53.922Z,15.80
2018-05-14T04:02:53.937Z,15.71
2018-05-14T04:03:53.954Z,15.84
2018-05-14T04:04:53.969Z,15.83
2018-05-14T04:05:54.085Z,15.80
2018-05-14T04:06:54.006Z,15.82
2018-05-14T04:07:54.021Z,15.82
2018-05-14T04:08:54.035Z,15.78
2018-05-14T04:09:54.056Z,15.90
2018-05-14T04:10:54.073Z,15.89
2018-05-14T04:11:54.089Z,15.84
2018-05-14T04:12:54.102Z,15.86
2018-05-14T04:13:54.209Z,15.80
2018-05-14T04:14:54.140Z,15.75
2018-05-14T04:15:54.151Z,15.80
2018-05-14T04:16:54.167Z,15.80
2018-05-14T04:17:54.185Z,15.74
2018-05-14T04:18:54.201Z,15.74
2018-05-14T04:19:54.221Z,15.82
2018-05-14T04:20:54.237Z,15.76
2018-05-14T04:21:54.253Z,15.78
2018-05-14T04:22:54.267Z,15.74
2018-05-14T04:23:54.285Z,15.76
2018-05-14T04:24:54.312Z,15.69
2018-05-14T04:25:54.317Z,15.76
2018-05-14T04:26:54.333Z,15.75
2018-05-14T04:27:54.354Z,15.78
2018-05-14T04:28:54.367Z,15.75
2018-05-14T04:29:54.383Z,15.75
2018-05-14T04:30:54.411Z,15.71
2018-05-14T04:31:54.421Z,15.82
2018-05-14T04:32:54.803Z,15.78
2018-05-14T04:33:54.450Z,15.76
2018-05-14T04:34:54.473Z,15.76
2018-05-14T04:35:54.484Z,15.82
2018-05-14T04:36:54.644Z,15.74
2018-05-14T04:37:54.515Z,15.78
2018-05-14T04:38:54.541Z,15.74
2018-05-14T04:39:54.553Z,15.75
2018-05-14T04:40:54.567Z,15.84
2018-05-14T04:41:54.583Z,15.86
2018-05-14T04:42:54.600Z,15.74
2018-05-14T04:43:54.621Z,15.82
2018-05-14T04:44:54.714Z,15.80
2018-05-14T04:45:54.654Z,15.78
2018-05-14T04:46:54.672Z,15.86
2018-05-14T04:48:54.702Z,16.01
2018-05-14T04:49:54.713Z,15.94
2018-05-14T04:50:54.730Z,16.02
2018-05-14T04:51:54.742Z,15.92
2018-05-14T04:52:54.759Z,15.83
2018-05-14T04:53:54.775Z,15.83
2018-05-14T04:54:54.792Z,15.76
2018-05-14T04:56:54.837Z,15.74
2018-05-14T04:57:54.847Z,15.80
2018-05-14T04:58:54.873Z,15.78
2018-05-14T04:59:54.877Z,15.89
2018-05-14T05:00:54.895Z,15.89
2018-05-14T05:01:54.907Z,15.87
2018-05-14T05:02:54.925Z,15.90
2018-05-14T05:03:54.953Z,15.97
2018-05-14T05:04:54.964Z,15.94
2018-05-14T05:05:55.033Z,15.97
2018-05-14T05:06:54.994Z,16.04
2018-05-14T05:07:55.028Z,16.01
2018-05-14T05:08:55.031Z,15.97
2018-05-14T05:09:55.045Z,16.04
2018-05-14T05:10:55.078Z,16.05
2018-05-14T05:11:55.080Z,16.01
2018-05-14T05:12:55.092Z,15.94
2018-05-14T05:13:55.111Z,15.89
2018-05-14T05:14:55.126Z,15.97
2018-05-14T05:15:55.142Z,15.92
2018-05-14T05:16:55.160Z,16.01
2018-05-14T05:17:55.185Z,15.94
2018-05-14T05:18:55.192Z,15.92
2018-05-14T05:19:55.217Z,16.04
2018-05-14T05:20:55.231Z,16.02
2018-05-14T05:21:55.248Z,16.04
2018-05-14T05:22:55.347Z,16.09
2018-05-14T05:23:55.277Z,16.04
2018-05-14T05:24:55.292Z,16.08
2018-05-14T05:25:55.311Z,16.07
2018-05-14T05:26:55.337Z,16.11
2018-05-14T05:27:55.341Z,16.09
2018-05-14T05:28:55.360Z,16.08
2018-05-14T05:29:55.376Z,16.08
2018-05-14T05:30:55.393Z,15.97
2018-05-14T05:31:55.410Z,15.92
2018-05-14T05:32:55.429Z,15.82
2018-05-14T05:33:55.444Z,15.84
2018-05-14T05:34:55.475Z,15.76
2018-05-14T05:35:55.478Z,15.76
2018-05-14T05:36:55.499Z,15.76
2018-05-14T05:37:55.580Z,15.82
2018-05-14T05:38:55.530Z,15.76
2018-05-14T05:39:55.550Z,15.78
2018-05-14T05:41:55.577Z,15.87
2018-05-14T05:42:55.599Z,15.84
2018-05-14T05:43:55.609Z,15.89
2018-05-14T05:44:55.627Z,15.92
2018-05-14T05:45:55.643Z,15.89
2018-05-14T05:46:55.661Z,15.80
2018-05-14T05:47:55.677Z,15.83
2018-05-14T05:48:55.698Z,15.89
2018-05-14T05:49:55.711Z,15.89
2018-05-14T05:50:55.727Z,15.97
2018-05-14T05:51:55.744Z,16.01
2018-05-14T05:52:55.763Z,15.89
2018-05-14T05:53:55.779Z,15.82
2018-05-14T05:54:55.797Z,15.84
2018-05-14T05:55:55.812Z,15.80
2018-05-14T05:56:55.827Z,15.78
2018-05-14T05:57:55.857Z,15.76
2018-05-14T05:58:55.880Z,15.89
2018-05-14T05:59:55.887Z,15.75
2018-05-14T06:00:55.895Z,15.74
2018-05-14T06:01:55.910Z,15.84
2018-05-14T06:02:55.930Z,15.75
2018-05-14T06:03:55.945Z,15.86
2018-05-14T06:04:55.962Z,15.90
2018-05-14T06:05:55.985Z,15.97
2018-05-14T06:06:55.995Z,16.01
2018-05-14T06:07:56.012Z,16.02
2018-05-14T06:08:56.032Z,16.04
2018-05-14T06:09:56.057Z,16.05
2018-05-14T06:10:56.066Z,16.05
2018-05-14T06:11:56.102Z,16.09
2018-05-14T06:12:56.129Z,16.24
2018-05-14T06:13:56.111Z,16.15
2018-05-14T06:14:56.169Z,16.45
2018-05-14T06:15:56.148Z,16.43
2018-05-14T06:16:56.166Z,16.46
2018-05-14T06:17:56.178Z,16.48
2018-05-14T06:18:56.196Z,16.45
2018-05-14T06:19:56.212Z,16.45
2018-05-14T06:20:56.231Z,16.45
2018-05-14T06:21:56.245Z,16.34
2018-05-14T06:22:56.274Z,16.23
2018-05-14T06:23:56.281Z,16.21
2018-05-14T06:24:56.295Z,16.23
2018-05-14T06:25:56.315Z,16.33
2018-05-14T06:26:56.331Z,16.25
2018-05-14T06:27:56.365Z,16.21
2018-05-14T06:28:56.367Z,16.21
2018-05-14T06:29:56.381Z,16.11
2018-05-14T06:30:56.397Z,16.07
2018-05-14T06:31:56.502Z,16.15
2018-05-14T06:32:56.433Z,16.21
2018-05-14T06:33:56.452Z,16.15
2018-05-14T06:34:56.474Z,16.21
2018-05-14T06:35:56.618Z,16.12
2018-05-14T06:36:56.731Z,16.25
2018-05-14T06:37:56.706Z,16.31
2018-05-14T06:38:56.618Z,16.52
2018-05-14T06:39:56.745Z,16.63
2018-05-14T06:40:56.634Z,16.64
2018-05-14T06:41:56.671Z,16.70
2018-05-14T06:42:56.622Z,16.93
2018-05-14T06:43:56.617Z,16.82
2018-05-14T06:44:56.644Z,16.82
2018-05-14T06:45:56.653Z,16.89
2018-05-14T06:46:56.678Z,16.88
2018-05-14T06:47:56.685Z,16.79
2018-05-14T06:48:56.701Z,16.82
2018-05-14T06:49:56.816Z,16.78
2018-05-14T06:50:56.740Z,16.91
2018-05-14T06:51:56.755Z,16.93
2018-05-14T06:52:56.770Z,16.94
2018-05-14T06:53:56.806Z,16.93
2018-05-14T06:54:56.804Z,17.03
2018-05-14T06:55:56.820Z,16.97
2018-05-14T06:56:56.838Z,16.93
2018-05-14T06:57:56.857Z,16.97
2018-05-14T06:59:56.909Z,16.96
2018-05-14T07:00:56.906Z,16.93
2018-05-14T07:01:56.926Z,16.89
2018-05-14T07:02:56.946Z,16.78
2018-05-14T07:03:56.957Z,16.75
2018-05-14T07:04:56.973Z,16.82
2018-05-14T07:05:56.995Z,16.79
2018-05-14T07:06:57.007Z,16.82
2018-05-14T07:07:57.029Z,16.93
2018-05-14T07:08:57.083Z,16.88
2018-05-14T07:09:57.065Z,16.97
2018-05-14T07:10:57.084Z,16.88
2018-05-14T07:11:57.834Z,16.91
2018-05-14T07:12:57.120Z,16.97
2018-05-14T07:13:57.138Z,17.04
2018-05-14T07:14:57.171Z,17.18
2018-05-14T07:15:57.219Z,17.21
2018-05-14T07:16:57.177Z,17.30
2018-05-14T07:17:57.195Z,17.40
2018-05-14T07:18:57.214Z,17.31
2018-05-14T07:19:57.296Z,17.36
2018-05-14T07:20:57.252Z,17.43
2018-05-14T07:21:57.262Z,17.40
2018-05-14T07:22:57.277Z,17.37
2018-05-14T07:23:57.315Z,17.37
2018-05-14T07:24:57.320Z,17.43
2018-05-14T07:26:57.369Z,17.44
2018-05-14T07:27:57.372Z,17.40
2018-05-14T07:28:57.382Z,17.51
2018-05-14T07:29:57.402Z,17.55
2018-05-14T07:30:57.415Z,17.64
2018-05-14T07:31:57.430Z,17.71
2018-05-14T07:32:57.455Z,17.72
2018-05-14T07:33:57.507Z,17.72
2018-05-14T07:34:57.507Z,17.77
2018-05-14T07:35:57.510Z,17.74
2018-05-14T07:36:57.627Z,17.75
2018-05-14T07:37:57.567Z,17.75
2018-05-14T07:38:57.564Z,17.78
2018-05-14T07:39:59.193Z,17.81
2018-05-14T07:40:57.591Z,17.82
2018-05-14T07:41:57.609Z,17.84
2018-05-14T07:42:57.619Z,17.90
2018-05-14T07:43:58.021Z,17.93
2018-05-14T07:44:57.659Z,18.07
2018-05-14T07:45:57.774Z,18.03
2018-05-14T07:46:57.695Z,18.11
2018-05-14T07:47:57.706Z,18.08
2018-05-14T07:48:57.732Z,18.12
2018-05-14T07:49:58.060Z,18.12
2018-05-14T07:50:57.929Z,18.07
2018-05-14T07:51:57.775Z,18.17
2018-05-14T07:52:57.942Z,18.12
2018-05-14T07:53:57.826Z,18.11
2018-05-14T07:54:57.847Z,18.26
2018-05-14T07:55:57.854Z,18.26
2018-05-14T07:56:57.869Z,18.23
2018-05-14T07:57:58.307Z,18.23
2018-05-14T07:58:57.912Z,18.29
2018-05-14T07:59:58.637Z,18.33
2018-05-14T08:00:57.973Z,18.32
2018-05-14T08:01:57.956Z,18.39
2018-05-14T08:02:57.970Z,18.51
2018-05-14T08:03:58.003Z,18.51
2018-05-14T08:04:58.000Z,18.55
2018-05-14T08:05:58.019Z,18.58
2018-05-14T08:06:58.042Z,18.67
2018-05-14T08:07:58.051Z,18.75
2018-05-14T08:08:58.111Z,18.75
2018-05-14T08:09:59.523Z,18.76
2018-05-14T08:10:58.566Z,18.73
2018-05-14T08:11:59.375Z,18.78
2018-05-14T08:12:59.010Z,18.88
2018-05-14T08:13:58.836Z,18.87
2018-05-14T08:14:58.479Z,18.87
2018-05-14T08:15:58.930Z,18.88
2018-05-14T08:16:58.382Z,18.88
2018-05-14T08:18:01.845Z,18.87
2018-05-14T08:18:58.527Z,18.88
2018-05-14T08:19:58.967Z,19.04
2018-05-14T08:20:58.288Z,19.07
2018-05-14T08:21:58.495Z,19.07
2018-05-14T08:23:02.459Z,19.10
2018-05-14T08:23:58.702Z,19.11
2018-05-14T08:25:02.450Z,19.10
2018-05-14T08:26:01.585Z,19.14
2018-05-14T08:26:58.573Z,19.13
2018-05-14T08:27:59.627Z,19.13
2018-05-14T08:28:58.841Z,19.16
2018-05-14T08:29:58.741Z,19.16
2018-05-14T08:31:58.617Z,19.33
2018-05-14T08:32:58.677Z,19.28
2018-05-14T08:34:00.343Z,19.50
2018-05-14T08:35:02.950Z,19.43
2018-05-14T08:36:03.086Z,19.46
2018-05-14T08:36:59.139Z,19.58
2018-05-14T08:37:59.179Z,19.54
2018-05-14T08:39:02.301Z,19.56
2018-05-14T08:39:59.549Z,19.46
2018-05-14T08:41:03.288Z,19.55
2018-05-14T08:42:03.327Z,19.54
2018-05-14T08:42:58.793Z,19.51
2018-05-14T08:44:00.932Z,19.51
2018-05-14T08:44:59.473Z,19.56
2018-05-14T08:45:58.918Z,19.54
2018-05-14T08:47:00.718Z,19.58
2018-05-14T08:47:58.944Z,19.58
2018-05-14T08:48:58.971Z,19.62
2018-05-14T08:50:01.596Z,19.68
2018-05-14T08:51:58.985Z,19.78
2018-05-14T08:53:02.937Z,19.88
2018-05-14T08:53:59.054Z,19.91
2018-05-14T08:54:59.743Z,19.87
2018-05-14T08:55:59.988Z,19.88
2018-05-14T08:58:01.822Z,20.02
2018-05-14T08:58:59.376Z,19.99
2018-05-14T09:00:00.174Z,20.13
2018-05-14T09:01:01.301Z,20.23
2018-05-14T09:02:03.086Z,20.38
2018-05-14T09:02:59.924Z,20.32
2018-05-14T09:04:03.061Z,20.28
2018-05-14T09:05:01.019Z,20.23
2018-05-14T09:05:59.293Z,20.36
2018-05-14T09:07:02.298Z,20.29
2018-05-14T09:07:59.306Z,20.47
2018-05-14T09:08:59.860Z,20.41
2018-05-14T09:10:01.350Z,20.52
2018-05-14T09:10:59.286Z,20.52
2018-05-14T09:11:59.799Z,20.66
2018-05-14T09:13:03.642Z,20.61
2018-05-14T09:13:59.369Z,20.77
2018-05-14T09:14:59.331Z,20.87
2018-05-14T09:16:59.382Z,20.92
2018-05-14T09:17:59.497Z,20.97
2018-05-14T09:18:59.601Z,20.92
2018-05-14T09:19:59.335Z,20.94
2018-05-14T09:21:00.008Z,21.03
2018-05-14T09:22:03.635Z,21.03
2018-05-14T09:22:59.979Z,20.99
2018-05-14T09:23:59.572Z,21.12
2018-05-14T09:24:59.665Z,21.09
2018-05-14T09:26:00.111Z,21.07
2018-05-14T09:27:00.106Z,21.09
2018-05-14T09:28:01.071Z,21.10
2018-05-14T09:29:00.163Z,21.01
2018-05-14T09:29:59.764Z,21.04
2018-05-14T09:30:59.856Z,21.12
2018-05-14T09:32:01.805Z,21.12
2018-05-14T09:33:00.569Z,21.19
2018-05-14T09:34:02.728Z,21.17
2018-05-14T09:35:02.154Z,21.17
2018-05-14T09:35:59.682Z,21.24
2018-05-14T09:36:59.643Z,21.38
2018-05-14T09:37:59.654Z,21.35
2018-05-14T09:38:59.671Z,21.34
2018-05-14T09:39:59.695Z,21.38
2018-05-14T09:40:59.717Z,21.38
2018-05-14T09:41:59.753Z,21.53
2018-05-14T09:42:59.797Z,21.53
2018-05-14T09:43:59.761Z,21.62
2018-05-14T09:44:59.786Z,21.62
2018-05-14T09:45:59.799Z,21.68
2018-05-14T09:46:59.820Z,21.72
2018-05-14T09:47:59.837Z,21.79
2018-05-14T09:48:59.856Z,21.79
2018-05-14T09:49:59.881Z,21.84
2018-05-14T09:50:59.893Z,21.92
2018-05-14T09:51:59.913Z,22.00
2018-05-14T09:52:59.947Z,21.90
2018-05-14T09:53:59.949Z,22.14
2018-05-14T09:54:59.978Z,22.09
2018-05-14T09:55:59.988Z,22.22
2018-05-14T09:57:00.005Z,22.33
2018-05-14T09:58:00.026Z,22.27
2018-05-14T09:59:00.038Z,22.33
2018-05-14T10:00:00.128Z,22.42
2018-05-14T10:01:00.094Z,22.36
2018-05-14T10:02:00.223Z,22.57
2018-05-14T10:03:00.114Z,22.36
2018-05-14T10:04:00.150Z,22.36
2018-05-14T10:05:00.154Z,22.45
2018-05-14T10:06:00.213Z,22.49
2018-05-14T10:07:00.189Z,22.46
2018-05-14T10:08:00.425Z,22.49
2018-05-14T10:09:00.226Z,22.52
2018-05-14T10:10:00.356Z,22.51
2018-05-14T10:11:00.267Z,22.65
2018-05-14T10:12:00.283Z,22.70
2018-05-14T10:13:00.345Z,22.82
2018-05-14T10:14:00.322Z,22.79
2018-05-14T10:15:00.346Z,22.85
2018-05-14T10:16:00.362Z,22.91
2018-05-14T10:17:00.475Z,22.91
2018-05-14T10:18:00.419Z,23.07
2018-05-14T10:19:00.426Z,23.09
2018-05-14T10:20:00.438Z,23.15
2018-05-14T10:21:00.457Z,23.15
2018-05-14T10:22:00.710Z,23.17
2018-05-14T10:23:00.663Z,23.19
2018-05-14T10:24:00.525Z,23.25
2018-05-14T10:25:00.544Z,23.35
2018-05-14T10:26:00.548Z,23.31
2018-05-14T10:27:00.568Z,23.27
2018-05-14T10:28:00.595Z,23.42
2018-05-14T10:29:00.609Z,23.42
2018-05-14T10:30:00.627Z,23.47
2018-05-14T10:31:00.737Z,23.55
2018-05-14T10:32:00.759Z,23.57
2018-05-14T10:33:00.684Z,23.55
2018-05-14T10:34:00.709Z,23.70
2018-05-14T10:35:00.746Z,23.60
2018-05-14T10:36:00.744Z,23.60
2018-05-14T10:37:00.762Z,23.68
2018-05-14T10:38:00.785Z,23.61
2018-05-14T10:39:00.805Z,23.75
2018-05-14T10:40:00.827Z,23.69
2018-05-14T10:41:00.868Z,23.73
2018-05-14T10:42:00.861Z,23.68
2018-05-14T10:43:00.883Z,23.73
2018-05-14T10:44:00.896Z,23.73
2018-05-14T10:45:00.937Z,23.73
2018-05-14T10:46:00.940Z,23.85
2018-05-14T10:47:00.959Z,23.87
2018-05-14T10:48:00.981Z,23.93
2018-05-14T10:49:00.997Z,24.00
2018-05-14T10:50:01.012Z,24.03
2018-05-14T10:51:01.075Z,23.98
2018-05-14T10:52:01.052Z,23.98
2018-05-14T10:53:01.074Z,24.10
2018-05-14T10:54:01.092Z,24.21
2018-05-14T10:55:01.107Z,24.25
2018-05-14T10:56:01.153Z,24.32
2018-05-14T10:57:01.150Z,24.34
2018-05-14T10:58:01.948Z,24.40
2018-05-14T10:59:01.191Z,24.47
2018-05-14T11:00:01.221Z,24.52
2018-05-14T11:01:01.279Z,24.64
2018-05-14T11:02:01.261Z,24.55
2018-05-14T11:03:01.265Z,24.53
2018-05-14T11:04:01.371Z,24.60
2018-05-14T11:05:01.304Z,24.58
2018-05-14T11:06:01.340Z,24.71
2018-05-14T11:07:01.345Z,24.80
2018-05-14T11:08:01.382Z,24.83
2018-05-14T11:09:01.385Z,24.85
2018-05-14T11:10:05.123Z,24.88
2018-05-14T11:11:01.422Z,25.00
2018-05-14T11:12:02.115Z,24.88
2018-05-14T11:13:01.467Z,24.88
2018-05-14T11:14:01.693Z,24.88
2018-05-14T11:15:01.503Z,24.91
2018-05-14T11:16:01.624Z,24.99
2018-05-14T11:17:01.899Z,24.88
2018-05-14T11:18:01.576Z,24.95
2018-05-14T11:19:01.584Z,25.03
2018-05-14T11:20:01.604Z,24.98
2018-05-14T11:21:01.622Z,25.09
2018-05-14T11:22:01.647Z,25.05
2018-05-14T11:23:01.892Z,24.96
2018-05-14T11:24:01.717Z,24.96
2018-05-14T11:25:05.510Z,25.14
2018-05-14T11:26:04.804Z,25.15
2018-05-14T11:27:06.037Z,25.23
2018-05-14T11:28:02.828Z,25.39
2018-05-14T11:29:01.785Z,25.45
2018-05-14T11:30:01.801Z,25.51
2018-05-14T11:31:01.825Z,25.54
2018-05-14T11:32:02.687Z,25.51
2018-05-14T11:33:01.865Z,25.58
2018-05-14T11:34:02.082Z,25.57
2018-05-14T11:35:01.912Z,25.54
2018-05-14T11:36:01.932Z,25.67
2018-05-14T11:37:01.943Z,25.54
2018-05-14T11:38:02.206Z,25.46
2018-05-14T11:39:01.984Z,25.43
2018-05-14T11:40:03.449Z,25.46
2018-05-14T11:41:02.337Z,25.46
2018-05-14T11:43:02.533Z,25.39
2018-05-14T11:44:02.097Z,25.52
2018-05-14T11:45:02.107Z,25.46
2018-05-14T11:46:02.141Z,25.61
2018-05-14T11:47:02.337Z,25.61
2018-05-14T11:48:02.166Z,25.80
2018-05-14T11:49:02.260Z,26.01
2018-05-14T11:50:02.210Z,26.13
2018-05-14T11:51:02.226Z,26.06
2018-05-14T11:52:02.248Z,26.17
2018-05-14T11:53:02.266Z,26.28
2018-05-14T11:54:02.295Z,26.37
2018-05-14T11:55:02.308Z,26.36
2018-05-14T11:56:02.339Z,26.44
2018-05-14T11:57:02.355Z,26.50
2018-05-14T11:58:02.370Z,26.54
2018-05-14T11:59:02.400Z,26.58
2018-05-14T12:00:02.411Z,26.45
2018-05-14T12:01:02.437Z,26.51
2018-05-14T12:02:02.454Z,26.48
2018-05-14T12:03:02.535Z,26.63
2018-05-14T12:04:02.493Z,26.63
2018-05-14T12:05:02.521Z,26.63
2018-05-14T12:06:02.540Z,26.45
2018-05-14T12:07:02.557Z,26.47
2018-05-14T12:08:02.576Z,26.57
2018-05-14T12:09:02.598Z,26.67
2018-05-14T12:10:02.629Z,26.69
2018-05-14T12:11:02.648Z,26.77
2018-05-14T12:12:02.664Z,26.77
2018-05-14T12:13:02.683Z,26.81
2018-05-14T12:14:02.701Z,26.91
2018-05-14T12:15:02.726Z,26.99
2018-05-14T12:16:02.800Z,26.99
2018-05-14T12:17:02.772Z,27.07
2018-05-14T12:18:02.882Z,27.09
2018-05-14T12:19:02.811Z,27.18
2018-05-14T12:20:02.830Z,27.25
2018-05-14T12:21:02.854Z,27.34
2018-05-14T12:22:02.873Z,27.47
2018-05-14T12:23:02.890Z,27.46
2018-05-14T12:24:02.913Z,27.47
2018-05-14T12:25:02.952Z,27.43
2018-05-14T12:26:03.029Z,27.47
2018-05-14T12:27:02.977Z,27.51
2018-05-14T12:28:02.999Z,27.49
2018-05-14T12:29:03.019Z,27.59
2018-05-14T12:30:03.042Z,27.47
2018-05-14T12:31:03.069Z,27.36
2018-05-14T12:32:03.273Z,27.31
2018-05-14T12:33:03.107Z,27.29
2018-05-14T12:34:03.128Z,27.44
2018-05-14T12:35:03.160Z,27.43
2018-05-14T12:36:03.170Z,27.55
2018-05-14T12:37:03.218Z,27.75
2018-05-14T12:38:03.219Z,27.94
2018-05-14T12:39:03.242Z,28.09
2018-05-14T12:40:03.257Z,28.09
2018-05-14T12:41:03.280Z,28.22
2018-05-14T12:42:03.301Z,28.17
2018-05-14T12:43:03.323Z,28.22
2018-05-14T12:44:03.342Z,28.19
2018-05-14T12:45:03.362Z,28.22
2018-05-14T12:46:03.403Z,28.12
2018-05-14T12:47:03.417Z,28.14
2018-05-14T12:48:03.429Z,28.11
2018-05-14T12:49:03.451Z,28.14
2018-05-14T12:50:03.475Z,28.22
2018-05-14T12:51:03.497Z,27.82
2018-05-14T12:52:03.546Z,27.90
2018-05-14T12:53:03.545Z,27.92
2018-05-14T12:54:03.570Z,28.18
2018-05-14T12:55:03.598Z,28.12
2018-05-14T12:56:03.765Z,28.22
2018-05-14T12:57:03.664Z,28.31
2018-05-14T12:58:03.753Z,28.21
2018-05-14T12:59:03.693Z,28.29
2018-05-14T13:00:03.721Z,28.44
2018-05-14T13:01:03.766Z,28.55
2018-05-14T13:02:03.771Z,28.58
2018-05-14T13:03:04.408Z,28.61